createdAt,value
2024-01-24T00:02:09.680Z,3.50
2024-01-24T00:04:40.195Z,7.15
2024-01-24T00:07:10.898Z,5.05
2024-01-24T00:09:41.589Z,2.80
2024-01-24T00:12:15.090Z,3.88
2024-01-24T00:14:45.794Z,4.22
2024-01-24T00:17:16.634Z,3.53
2024-01-24T00:19:47.403Z,4.03
2024-01-24T00:22:18.161Z,4.72
2024-01-24T00:24:48.948Z,3.75
2024-01-24T00:27:22.252Z,4.97
2024-01-24T00:29:53.853Z,4.88
2024-01-24T00:32:24.393Z,3.65
2024-01-24T00:34:55.086Z,4.25
2024-01-24T00:37:25.682Z,4.35
2024-01-24T00:39:56.268Z,3.50
2024-01-24T00:42:29.502Z,3.08
2024-01-24T00:45:00.093Z,2.45
2024-01-24T00:47:30.789Z,3.75
2024-01-24T00:50:01.542Z,4.68
2024-01-24T00:52:32.144Z,4.15
2024-01-24T00:55:02.926Z,3.45
2024-01-24T00:57:36.262Z,6.00
2024-01-24T01:00:08.577Z,5.97
2024-01-24T01:02:40.873Z,4.25
2024-01-24T01:05:12.100Z,3.25
2024-01-24T01:10:14.101Z,3.40
2024-01-24T01:12:47.280Z,4.00
2024-01-24T01:15:19.728Z,5.72
2024-01-24T01:17:50.393Z,3.67
2024-01-24T01:20:22.055Z,5.03
2024-01-24T01:22:53.133Z,3.90
2024-01-24T01:25:26.510Z,4.22
2024-01-24T01:27:59.853Z,4.22
2024-01-24T01:30:32.719Z,4.32
2024-01-24T01:33:08.246Z,4.53
2024-01-24T01:35:44.651Z,6.28
2024-01-24T01:38:18.466Z,3.90
2024-01-24T01:40:49.236Z,3.95
2024-01-24T01:43:25.611Z,3.22
2024-01-24T01:46:05.943Z,2.33
2024-01-24T01:48:38.892Z,3.47
2024-01-24T01:51:11.094Z,5.05
2024-01-24T01:53:44.851Z,2.67
2024-01-24T01:56:20.197Z,5.32
2024-01-24T01:58:56.420Z,4.70
2024-01-24T02:01:27.431Z,2.92
2024-01-24T02:06:30.831Z,3.30
2024-01-24T02:09:01.853Z,4.18
2024-01-24T02:11:34.111Z,2.90
2024-01-24T02:14:08.680Z,3.90
2024-01-24T02:16:39.225Z,4.28
2024-01-24T02:19:12.326Z,4.63
2024-01-24T02:21:43.104Z,3.85
2024-01-24T02:24:16.824Z,2.55
2024-01-24T02:26:49.140Z,4.30
2024-01-24T02:29:21.809Z,4.57
2024-01-24T02:31:57.888Z,5.88
2024-01-24T02:34:28.678Z,3.80
2024-01-24T02:37:03.985Z,3.88
2024-01-24T02:39:37.505Z,3.70
2024-01-24T02:42:11.201Z,3.75
2024-01-24T02:44:42.029Z,6.35
2024-01-24T02:47:13.276Z,5.80
2024-01-24T02:52:20.410Z,4.85
2024-01-24T02:54:53.662Z,4.93
2024-01-24T02:57:24.419Z,3.83
2024-01-24T02:59:55.085Z,2.42
2024-01-24T03:02:27.126Z,5.75
2024-01-24T03:05:01.410Z,6.80
2024-01-24T03:07:35.890Z,2.85
2024-01-24T03:10:13.152Z,4.25
2024-01-24T03:12:51.115Z,3.67
2024-01-24T03:15:21.900Z,6.55
2024-01-24T03:17:53.196Z,5.78
2024-01-24T03:20:24.029Z,4.88
2024-01-24T03:22:56.395Z,4.82
2024-01-24T03:25:35.313Z,4.28
2024-01-24T03:28:13.091Z,4.20
2024-01-24T03:30:43.708Z,5.22
2024-01-24T03:33:14.778Z,3.97
2024-01-24T03:35:45.506Z,1.98
2024-01-24T03:38:19.056Z,5.38
2024-01-24T03:40:54.810Z,5.30
2024-01-24T03:43:25.937Z,4.20
2024-01-24T03:48:29.044Z,3.13
2024-01-24T03:50:59.626Z,2.83
2024-01-24T03:53:30.524Z,3.25
2024-01-24T03:56:03.756Z,2.83
2024-01-24T03:58:34.484Z,4.88
2024-01-24T04:01:05.134Z,5.30
2024-01-24T04:03:35.900Z,2.95
2024-01-24T04:06:07.057Z,3.90
2024-01-24T04:11:10.553Z,3.40
2024-01-24T04:13:41.044Z,4.00
2024-01-24T04:16:11.672Z,3.03
2024-01-24T04:18:42.307Z,5.03
2024-01-24T04:21:12.974Z,4.40
2024-01-24T04:23:43.524Z,4.22
2024-01-24T04:26:17.558Z,2.50
2024-01-24T04:28:48.071Z,6.40
2024-01-24T04:31:18.935Z,3.50
2024-01-24T04:33:49.695Z,3.22
2024-01-24T04:36:20.381Z,4.15
2024-01-24T04:38:50.977Z,3.47
2024-01-24T04:41:24.319Z,3.08
2024-01-24T04:43:55.021Z,3.40
2024-01-24T04:46:25.613Z,3.72
2024-01-24T04:48:56.348Z,1.90
2024-01-24T04:51:27.271Z,3.72
2024-01-24T04:53:57.943Z,3.25
2024-01-24T04:56:31.270Z,4.30
2024-01-24T04:59:01.827Z,2.92
2024-01-24T05:01:32.459Z,3.15
2024-01-24T05:04:03.184Z,1.58
2024-01-24T05:06:33.994Z,2.75
2024-01-24T05:09:05.875Z,4.03
2024-01-24T05:11:39.144Z,2.33
2024-01-24T05:14:09.588Z,2.95
2024-01-24T05:16:44.898Z,2.85
2024-01-24T05:19:15.440Z,3.72
2024-01-24T05:21:46.470Z,3.78
2024-01-24T05:24:17.076Z,3.55
2024-01-24T05:26:50.433Z,2.42
2024-01-24T05:29:20.982Z,2.88
2024-01-24T05:31:51.718Z,9.25
2024-01-24T05:34:22.558Z,2.72
2024-01-24T05:36:55.080Z,2.38
2024-01-24T05:39:26.286Z,1.73
2024-01-24T05:41:59.596Z,3.47
2024-01-24T05:44:30.116Z,2.63
2024-01-24T05:47:01.010Z,3.05
2024-01-24T05:49:31.630Z,3.20
2024-01-24T05:52:02.260Z,2.70
2024-01-24T05:54:32.984Z,3.65
2024-01-24T05:57:06.591Z,3.78
2024-01-24T05:59:37.194Z,3.75
2024-01-24T06:02:08.352Z,3.80
2024-01-24T06:07:10.916Z,2.58
2024-01-24T06:09:41.582Z,2.08
2024-01-24T06:12:14.913Z,2.05
2024-01-24T06:14:45.396Z,2.58
2024-01-24T06:17:15.969Z,3.70
2024-01-24T06:19:46.735Z,3.15
2024-01-24T06:22:17.368Z,2.72
2024-01-24T06:24:48.970Z,2.53
2024-01-24T06:27:22.888Z,2.70
2024-01-24T06:30:17.444Z,3.53
2024-01-24T06:32:44.336Z,4.20
2024-01-24T06:35:15.142Z,2.03
2024-01-24T06:37:45.681Z,2.10
2024-01-24T06:40:16.972Z,2.15
2024-01-24T06:45:21.212Z,2.05
2024-01-24T06:47:52.194Z,4.60
2024-01-24T06:50:22.798Z,1.65
2024-01-24T06:52:53.446Z,5.32
2024-01-24T06:55:25.494Z,3.92
2024-01-24T06:57:58.730Z,5.53
2024-01-24T07:00:31.356Z,5.32
2024-01-24T07:03:02.691Z,3.03
2024-01-24T07:05:33.330Z,3.80
2024-01-24T07:08:04.013Z,3.08
2024-01-24T07:10:34.988Z,4.95
2024-01-24T07:13:08.597Z,1.65
2024-01-24T07:15:39.168Z,5.13
2024-01-24T07:18:10.904Z,3.80
2024-01-24T07:20:42.428Z,3.67
2024-01-24T07:23:12.992Z,2.85
2024-01-24T07:25:43.497Z,2.25
2024-01-24T07:28:16.803Z,3.25
2024-01-24T07:30:48.048Z,2.40
2024-01-24T07:33:19.415Z,5.65
2024-01-24T07:35:51.116Z,4.05
2024-01-24T07:38:22.445Z,3.50
2024-01-24T07:40:53.000Z,1.67
2024-01-24T07:43:26.281Z,2.58
2024-01-24T07:45:57.177Z,3.55
2024-01-24T07:48:27.946Z,2.10
2024-01-24T07:50:58.627Z,3.05
2024-01-24T07:53:29.156Z,3.22
2024-01-24T07:56:10.844Z,2.50
2024-01-24T07:58:52.586Z,1.88
2024-01-24T08:01:23.506Z,1.67
2024-01-24T08:06:25.260Z,2.40
2024-01-24T08:11:26.532Z,3.15
2024-01-24T08:13:59.832Z,1.13
2024-01-24T08:16:30.615Z,2.78
2024-01-24T08:19:02.384Z,3.72
2024-01-24T08:21:33.756Z,1.83
2024-01-24T08:24:04.340Z,1.55
2024-01-24T08:26:34.937Z,0.80
2024-01-24T08:29:09.356Z,2.55
2024-01-24T08:31:41.248Z,0.93
2024-01-24T08:34:12.089Z,1.60
2024-01-24T08:36:42.766Z,1.98
2024-01-24T08:39:14.975Z,1.63
2024-01-24T08:41:45.678Z,2.03
2024-01-24T08:44:19.076Z,1.92
2024-01-24T08:46:50.349Z,2.55
2024-01-24T08:49:21.351Z,2.20
2024-01-24T08:51:52.688Z,1.42
2024-01-24T08:54:23.847Z,0.77
2024-01-24T08:59:29.107Z,4.70
2024-01-24T09:02:02.764Z,4.75
2024-01-24T09:04:33.708Z,2.20
2024-01-24T09:07:05.989Z,1.52
2024-01-24T09:09:40.019Z,1.60
2024-01-24T09:12:13.243Z,1.20
2024-01-24T09:14:46.740Z,1.52
2024-01-24T09:17:19.087Z,2.30
2024-01-24T09:19:51.740Z,3.30
2024-01-24T09:22:22.554Z,1.92
2024-01-24T09:24:58.981Z,2.92
2024-01-24T09:27:29.849Z,2.15
2024-01-24T09:32:33.633Z,1.60
2024-01-24T09:35:08.621Z,2.40
2024-01-24T09:37:39.455Z,1.33
2024-01-24T09:40:17.871Z,1.70
2024-01-24T09:42:49.094Z,2.33
2024-01-24T09:45:26.365Z,1.88
2024-01-24T09:47:59.376Z,1.30
2024-01-24T09:50:30.540Z,2.70
2024-01-24T09:53:02.284Z,2.90
2024-01-24T09:55:34.281Z,2.17
2024-01-24T09:58:08.032Z,1.98
2024-01-24T10:00:44.234Z,2.33
2024-01-24T10:03:16.314Z,10.35
2024-01-24T10:05:49.486Z,5.32
2024-01-24T10:08:20.675Z,4.13
2024-01-24T10:10:51.356Z,1.85
2024-01-24T10:13:22.205Z,2.85
2024-01-24T10:15:57.356Z,3.75
2024-01-24T10:18:29.009Z,2.58
2024-01-24T10:20:59.821Z,1.60
2024-01-24T10:23:30.561Z,3.05
2024-01-24T10:26:01.402Z,3.83
2024-01-24T10:28:32.048Z,2.15
2024-01-24T10:31:06.068Z,2.70
2024-01-24T10:33:37.263Z,6.38
2024-01-24T10:36:14.597Z,7.82
2024-01-24T10:38:53.267Z,5.90
2024-01-24T10:41:27.145Z,7.78
2024-01-24T10:44:01.914Z,4.85
2024-01-24T10:46:37.979Z,9.25
2024-01-24T10:49:09.567Z,5.68
2024-01-24T10:51:40.242Z,9.30
2024-01-24T10:54:11.764Z,6.60
2024-01-24T10:56:44.310Z,10.32
2024-01-24T10:59:17.921Z,4.32
2024-01-24T11:01:51.271Z,6.18
2024-01-24T11:04:26.082Z,3.50
2024-01-24T11:07:01.333Z,3.08
2024-01-24T11:09:41.150Z,4.60
2024-01-24T11:12:12.395Z,2.78
2024-01-24T11:14:50.722Z,11.45
2024-01-24T11:17:25.319Z,21.67
2024-01-24T11:19:56.244Z,5.70
2024-01-24T11:22:30.811Z,5.78
2024-01-24T11:25:02.701Z,7.93
2024-01-24T11:27:38.152Z,10.15
2024-01-24T11:30:23.132Z,11.60
2024-01-24T11:33:06.738Z,8.85
2024-01-24T11:35:40.242Z,10.18
2024-01-24T11:38:37.959Z,11.75
2024-01-24T11:41:28.019Z,8.93
2024-01-24T11:46:28.724Z,13.40
2024-01-24T11:49:10.073Z,10.93
2024-01-24T11:51:40.721Z,9.15
2024-01-24T11:54:11.589Z,29.10
2024-01-24T11:56:42.160Z,24.15
2024-01-24T11:59:12.705Z,9.25
2024-01-24T12:01:43.442Z,11.35
2024-01-24T12:04:17.293Z,7.30
2024-01-24T12:06:49.108Z,8.23
2024-01-24T12:09:19.893Z,13.55
2024-01-24T12:11:50.749Z,14.60
2024-01-24T12:14:22.153Z,15.48
2024-01-24T12:16:53.744Z,8.40
2024-01-24T12:19:27.500Z,11.27
2024-01-24T12:21:59.015Z,10.10
2024-01-24T12:27:04.705Z,15.73
2024-01-24T12:32:09.789Z,10.10
2024-01-24T12:34:43.407Z,12.73
2024-01-24T12:37:14.352Z,13.27
2024-01-24T12:39:46.925Z,15.55
2024-01-24T12:42:17.725Z,10.52
2024-01-24T12:44:48.632Z,10.40
2024-01-24T12:47:19.931Z,10.88
2024-01-24T12:49:53.357Z,13.90
2024-01-24T12:52:24.268Z,11.00
2024-01-24T12:54:55.117Z,12.45
2024-01-24T12:57:29.640Z,16.48
2024-01-24T13:00:02.248Z,14.50
2024-01-24T13:02:32.924Z,14.35
2024-01-24T13:05:06.347Z,13.98
2024-01-24T13:07:38.194Z,10.13
2024-01-24T13:10:10.598Z,9.63
2024-01-24T13:12:41.566Z,12.18
2024-01-24T13:15:13.469Z,10.07
2024-01-24T13:17:44.071Z,8.35
2024-01-24T13:20:17.611Z,10.10
2024-01-24T13:22:48.627Z,11.52
2024-01-24T13:25:19.408Z,7.78
2024-01-24T13:27:50.435Z,10.77
2024-01-24T13:32:51.294Z,10.30
2024-01-24T13:35:24.709Z,10.43
2024-01-24T13:37:55.995Z,11.18
2024-01-24T13:40:26.665Z,13.52
2024-01-24T13:42:57.445Z,11.45
2024-01-24T13:45:28.067Z,11.55
2024-01-24T13:50:32.465Z,12.63
2024-01-24T13:53:03.455Z,11.48
2024-01-24T13:55:34.497Z,14.35
2024-01-24T13:58:05.604Z,14.18
2024-01-24T14:00:36.410Z,11.10
2024-01-24T14:03:08.596Z,13.90
2024-01-24T14:05:42.133Z,11.95
2024-01-24T14:08:12.853Z,19.50
2024-01-24T14:10:43.504Z,13.25
2024-01-24T14:13:16.385Z,15.77
2024-01-24T14:15:47.735Z,10.40
2024-01-24T14:18:18.569Z,12.85
2024-01-24T14:23:23.880Z,14.43
2024-01-24T14:25:54.570Z,11.48
2024-01-24T14:28:25.147Z,17.33
2024-01-24T14:30:55.987Z,13.75
2024-01-24T14:33:33.836Z,10.00
2024-01-24T14:36:09.089Z,14.63
2024-01-24T14:38:39.690Z,13.13
2024-01-24T14:41:10.209Z,16.75
2024-01-24T14:43:40.736Z,12.48
2024-01-24T14:46:11.373Z,18.58
2024-01-24T14:48:42.043Z,20.48
2024-01-24T14:51:15.241Z,14.00
2024-01-24T14:53:45.775Z,13.52
2024-01-24T14:56:16.363Z,13.00
2024-01-24T14:58:47.928Z,14.57
2024-01-24T15:01:21.969Z,11.98
2024-01-24T15:03:53.613Z,13.52
2024-01-24T15:06:26.955Z,14.50
2024-01-24T15:08:57.774Z,15.43
2024-01-24T15:11:28.406Z,16.88
2024-01-24T15:13:59.006Z,13.15
2024-01-24T15:16:30.079Z,11.85
2024-01-24T15:19:00.976Z,13.02
2024-01-24T15:21:34.647Z,13.05
2024-01-24T15:24:07.503Z,19.77
2024-01-24T15:26:38.143Z,21.60
2024-01-24T15:29:08.653Z,12.70
2024-01-24T15:31:39.298Z,16.75
2024-01-24T15:34:11.664Z,17.52
2024-01-24T15:36:45.909Z,13.88
2024-01-24T15:39:17.462Z,15.00
2024-01-24T15:41:49.037Z,15.70
2024-01-24T15:44:19.797Z,20.50
2024-01-24T15:46:50.385Z,18.38
2024-01-24T15:49:21.279Z,13.90
2024-01-24T15:51:54.882Z,18.85
2024-01-24T15:54:25.500Z,17.77
2024-01-24T15:56:56.173Z,16.98
2024-01-24T15:59:26.895Z,17.42
2024-01-24T16:01:57.595Z,16.83
2024-01-24T16:04:28.648Z,13.95
2024-01-24T16:07:02.346Z,18.88
2024-01-24T16:09:33.176Z,13.80
2024-01-24T16:12:04.699Z,15.45
2024-01-24T16:14:36.370Z,21.73
2024-01-24T16:17:08.525Z,18.75
2024-01-24T16:19:41.195Z,18.85
2024-01-24T16:22:14.376Z,22.73
2024-01-24T16:24:45.223Z,16.92
2024-01-24T16:27:15.931Z,21.27
2024-01-24T16:29:46.644Z,15.57
2024-01-24T16:32:17.358Z,19.38
2024-01-24T16:34:49.465Z,15.02
2024-01-24T16:37:22.735Z,22.45
2024-01-24T16:39:50.742Z,12.95
2024-01-24T16:42:21.612Z,17.60
2024-01-24T16:44:52.217Z,18.13
2024-01-24T16:47:24.418Z,14.43
2024-01-24T16:49:55.437Z,19.75
2024-01-24T16:54:59.010Z,19.48
2024-01-24T16:57:29.673Z,17.52
2024-01-24T17:00:00.856Z,18.38
2024-01-24T17:05:14.798Z,21.58
2024-01-24T17:07:48.001Z,25.15
2024-01-24T17:10:18.621Z,19.80
2024-01-24T17:12:49.286Z,14.38
2024-01-24T17:17:50.857Z,14.10
2024-01-24T17:20:21.546Z,21.02
2024-01-24T17:22:54.775Z,17.23
2024-01-24T17:25:25.264Z,17.55
2024-01-24T17:27:56.679Z,20.10
2024-01-24T17:30:27.413Z,18.58
2024-01-24T17:32:58.861Z,18.23
2024-01-24T17:35:29.445Z,14.00
2024-01-24T17:38:03.013Z,16.50
2024-01-24T17:40:34.569Z,20.52
2024-01-24T17:43:05.348Z,16.48
2024-01-24T17:45:36.772Z,12.60
2024-01-24T17:48:09.308Z,19.52
2024-01-24T17:50:40.560Z,22.60
2024-01-24T17:55:47.339Z,17.45
2024-01-24T17:58:17.980Z,16.70
2024-01-24T18:00:49.124Z,18.40
2024-01-24T18:03:20.024Z,19.67
2024-01-24T18:05:50.642Z,20.90
2024-01-24T18:08:23.429Z,20.98
2024-01-24T18:10:55.247Z,20.92
2024-01-24T18:13:27.395Z,18.20
2024-01-24T18:15:58.266Z,16.95
2024-01-24T18:18:29.885Z,19.75
2024-01-24T18:21:00.566Z,19.95
2024-01-24T18:23:33.776Z,14.43
2024-01-24T18:26:04.306Z,20.63
2024-01-24T18:28:34.973Z,21.23
2024-01-24T18:31:05.657Z,16.67
2024-01-24T18:33:36.535Z,16.55
2024-01-24T18:36:10.974Z,20.23
2024-01-24T18:38:44.680Z,16.73
2024-01-24T18:41:20.050Z,20.40
2024-01-24T18:43:53.046Z,17.85
2024-01-24T18:46:26.721Z,19.98
2024-01-24T18:48:58.836Z,17.98
2024-01-24T18:51:30.893Z,17.38
2024-01-24T18:54:04.283Z,17.33
2024-01-24T18:56:34.914Z,17.25
2024-01-24T18:59:05.644Z,18.58
2024-01-24T19:01:36.542Z,26.30
2024-01-24T19:04:07.876Z,26.80
2024-01-24T19:06:39.721Z,18.00
2024-01-24T19:09:13.163Z,16.92
2024-01-24T19:11:43.680Z,17.73
2024-01-24T19:14:14.305Z,17.38
2024-01-24T19:16:45.033Z,16.77
2024-01-24T19:19:15.907Z,13.85
2024-01-24T19:21:47.632Z,16.40
2024-01-24T19:24:20.843Z,15.00
2024-01-24T19:26:51.580Z,16.58
2024-01-24T19:29:23.071Z,17.52
2024-01-24T19:31:54.608Z,15.73
2024-01-24T19:34:25.560Z,20.55
2024-01-24T19:36:57.684Z,22.95
2024-01-24T19:39:30.872Z,15.40
2024-01-24T19:42:01.472Z,18.98
2024-01-24T19:44:32.602Z,16.67
2024-01-24T19:47:03.359Z,16.65
2024-01-24T19:52:05.901Z,11.80
2024-01-24T19:54:40.162Z,19.30
2024-01-24T19:57:10.725Z,17.00
2024-01-24T19:59:41.299Z,15.20
2024-01-24T20:02:11.891Z,20.27
2024-01-24T20:04:45.226Z,16.35
2024-01-24T20:07:17.426Z,19.02
2024-01-24T20:09:52.072Z,16.55
2024-01-24T20:12:23.278Z,20.27
2024-01-24T20:14:57.244Z,16.75
2024-01-24T20:17:28.236Z,28.75
2024-01-24T20:19:59.166Z,29.77
2024-01-24T20:22:30.222Z,17.92
2024-01-24T20:27:34.107Z,21.60
2024-01-24T20:30:05.341Z,16.73
2024-01-24T20:35:19.810Z,17.13
2024-01-24T20:37:50.480Z,16.80
2024-01-24T20:42:55.121Z,18.45
2024-01-24T20:45:25.703Z,16.38
2024-01-24T20:48:00.554Z,19.33
2024-01-24T20:50:34.894Z,15.77
2024-01-24T20:53:08.003Z,13.88
2024-01-24T20:55:41.268Z,17.75
2024-01-24T20:58:11.993Z,18.67
2024-01-24T21:00:42.834Z,19.05
2024-01-24T21:03:17.388Z,17.98
2024-01-24T21:05:49.017Z,19.52
2024-01-24T21:08:20.360Z,15.05
2024-01-24T21:10:59.887Z,13.30
2024-01-24T21:13:33.935Z,16.55
2024-01-24T21:16:04.970Z,16.05
2024-01-24T21:18:35.614Z,21.55
2024-01-24T21:21:06.629Z,17.85
2024-01-24T21:26:16.162Z,12.68
2024-01-24T21:28:46.694Z,18.35
2024-01-24T21:31:17.348Z,15.27
2024-01-24T21:33:48.120Z,15.70
2024-01-24T21:36:24.655Z,17.10
2024-01-24T21:38:58.128Z,18.65
2024-01-24T21:41:31.569Z,21.17
2024-01-24T21:44:04.867Z,13.80
2024-01-24T21:46:35.375Z,25.42
2024-01-24T21:49:10.676Z,16.13
2024-01-24T21:51:41.604Z,17.00
2024-01-24T21:54:25.960Z,14.73
2024-01-24T21:57:10.895Z,16.85
2024-01-24T21:59:41.486Z,18.83
2024-01-24T22:02:12.047Z,20.80
2024-01-24T22:04:42.787Z,15.20
2024-01-24T22:07:13.521Z,20.52
2024-01-24T22:09:46.263Z,16.63
2024-01-24T22:12:27.660Z,21.48
2024-01-24T22:15:03.173Z,18.77
2024-01-24T22:17:36.450Z,13.43
2024-01-24T22:20:07.880Z,22.50
2024-01-24T22:25:18.938Z,19.88
2024-01-24T22:27:52.243Z,18.05
2024-01-24T22:30:22.772Z,17.25
2024-01-24T22:32:53.494Z,16.15
2024-01-24T22:35:29.502Z,27.98
2024-01-24T22:38:05.847Z,15.40
2024-01-24T22:40:46.835Z,25.77
2024-01-24T22:43:21.552Z,23.08
2024-01-24T22:45:54.710Z,17.25
2024-01-24T22:51:13.401Z,16.60
2024-01-24T22:53:44.611Z,20.65
2024-01-24T22:56:15.189Z,17.52
2024-01-24T22:58:48.369Z,20.00
2024-01-24T23:01:19.327Z,15.85
2024-01-24T23:03:50.138Z,23.38
2024-01-24T23:06:21.207Z,20.02
2024-01-24T23:08:51.968Z,17.05
2024-01-24T23:11:22.708Z,20.65
2024-01-24T23:13:55.889Z,19.67
2024-01-24T23:16:26.383Z,15.43
2024-01-24T23:19:00.351Z,17.63
2024-01-24T23:21:30.883Z,17.33
2024-01-24T23:24:02.118Z,19.33
2024-01-24T23:26:32.601Z,17.08
2024-01-24T23:29:05.808Z,20.42
2024-01-24T23:31:36.512Z,19.50
2024-01-24T23:34:07.361Z,16.52
2024-01-24T23:36:38.128Z,17.30
2024-01-24T23:39:08.736Z,16.40
2024-01-24T23:41:42.068Z,18.48
2024-01-24T23:44:15.526Z,16.48
2024-01-24T23:46:46.031Z,15.13
2024-01-24T23:49:17.762Z,17.50
2024-01-24T23:51:48.573Z,14.90
2024-01-24T23:54:19.449Z,19.23
2024-01-24T23:56:49.933Z,18.55
2024-01-24T23:59:23.592Z,16.95
